createdAt,value
2022-11-10T08:59:56.838Z,99158.13
2022-11-10T09:22:41.782Z,99200.97
2022-11-10T09:45:56.889Z,99255.47
2022-11-10T10:03:24.605Z,99278.06
2022-11-10T10:08:57.097Z,99283.69
2022-11-10T10:21:29.228Z,99279.13
2022-11-10T10:26:52.492Z,99250.28
2022-11-10T10:32:15.331Z,99260.94
2022-11-10T10:37:46.352Z,99218.94
2022-11-10T10:43:07.971Z,99273.00
2022-11-10T10:48:31.455Z,99284.31
2022-11-10T10:53:54.637Z,99307.06
2022-11-10T10:59:20.663Z,99295.75
2022-11-10T11:04:42.455Z,99311.00
2022-11-10T11:10:19.083Z,99234.88
2022-11-10T11:15:41.147Z,99261.03
2022-11-10T11:21:10.078Z,99308.63
2022-11-10T11:26:39.878Z,99298.78
2022-11-10T11:32:12.485Z,99216.88
2022-11-10T11:37:39.251Z,99316.28
2022-11-10T11:43:09.125Z,99282.13
2022-11-10T11:48:42.821Z,99344.25
2022-11-10T11:54:25.190Z,99329.59
2022-11-10T12:00:01.435Z,99213.06
2022-11-10T12:05:37.239Z,99320.66
2022-11-10T12:11:06.738Z,99292.97
2022-11-10T13:47:03.983Z,99401.56
2022-11-10T15:03:38.203Z,99471.75
2022-11-10T15:09:20.848Z,99490.09
2022-11-10T15:33:32.745Z,99536.94
2022-11-10T15:39:25.790Z,99536.66
2022-11-10T15:44:49.470Z,99533.81
2022-11-10T15:50:15.469Z,99459.78
2022-11-10T15:56:19.105Z,99553.88
2022-11-10T16:02:22.163Z,99557.53
2022-11-10T16:20:35.734Z,99594.47
2022-11-10T16:32:08.395Z,99541.78
2022-11-10T16:37:55.641Z,99599.72
2022-11-10T16:43:44.753Z,99467.03
2022-11-10T16:49:26.349Z,99640.38
2022-11-10T16:55:14.778Z,99649.38
2022-11-10T17:00:39.037Z,99656.28
2022-11-10T17:19:25.734Z,99677.84
2022-11-10T17:25:03.122Z,99709.47
2022-11-10T17:31:14.922Z,99721.31
2022-11-10T17:49:03.290Z,99724.78
2022-11-10T17:54:44.757Z,99717.84
